sensor_id;sensor_type;location;lat;lon;timestamp;P1;durP1;ratioP1;P2;durP2;ratioP2
79747;SDS011;69232;47.488;19.268;2023-06-22T00:00:39;7.88;;;3.65;;
79747;SDS011;69232;47.488;19.268;2023-06-22T00:03:07;8.60;;;3.78;;
79747;SDS011;69232;47.488;19.268;2023-06-22T00:05:32;9.25;;;3.88;;
79747;SDS011;69232;47.488;19.268;2023-06-22T00:08:01;8.70;;;3.40;;
79747;SDS011;69232;47.488;19.268;2023-06-22T00:10:28;10.02;;;3.60;;
79747;SDS011;69232;47.488;19.268;2023-06-22T00:12:53;9.48;;;3.78;;
79747;SDS011;69232;47.488;19.268;2023-06-22T00:15:18;10.27;;;3.65;;
79747;SDS011;69232;47.488;19.268;2023-06-22T00:17:45;8.73;;;3.50;;
79747;SDS011;69232;47.488;19.268;2023-06-22T00:20:10;9.32;;;3.60;;
79747;SDS011;69232;47.488;19.268;2023-06-22T00:22:36;10.82;;;4.05;;
79747;SDS011;69232;47.488;19.268;2023-06-22T00:25:08;9.20;;;3.63;;
79747;SDS011;69232;47.488;19.268;2023-06-22T00:27:34;7.05;;;3.83;;
79747;SDS011;69232;47.488;19.268;2023-06-22T00:29:59;10.32;;;3.75;;
79747;SDS011;69232;47.488;19.268;2023-06-22T00:32:25;10.90;;;4.13;;
79747;SDS011;69232;47.488;19.268;2023-06-22T00:34:50;10.80;;;3.97;;
79747;SDS011;69232;47.488;19.268;2023-06-22T00:37:16;8.80;;;4.13;;
79747;SDS011;69232;47.488;19.268;2023-06-22T00:39:42;10.38;;;4.00;;
79747;SDS011;69232;47.488;19.268;2023-06-22T00:42:08;11.85;;;4.00;;
79747;SDS011;69232;47.488;19.268;2023-06-22T00:44:34;16.30;;;4.95;;
79747;SDS011;69232;47.488;19.268;2023-06-22T00:47:00;10.13;;;4.38;;
79747;SDS011;69232;47.488;19.268;2023-06-22T00:49:31;10.60;;;3.97;;
79747;SDS011;69232;47.488;19.268;2023-06-22T00:51:57;9.85;;;4.40;;
79747;SDS011;69232;47.488;19.268;2023-06-22T00:54:23;13.35;;;4.43;;
79747;SDS011;69232;47.488;19.268;2023-06-22T00:56:55;13.82;;;4.57;;
79747;SDS011;69232;47.488;19.268;2023-06-22T00:59:23;12.38;;;4.13;;
79747;SDS011;69232;47.488;19.268;2023-06-22T01:01:49;15.27;;;4.78;;
79747;SDS011;69232;47.488;19.268;2023-06-22T01:04:14;13.32;;;4.00;;
79747;SDS011;69232;47.488;19.268;2023-06-22T01:06:51;9.30;;;4.00;;
79747;SDS011;69232;47.488;19.268;2023-06-22T01:09:27;8.85;;;3.88;;
79747;SDS011;69232;47.488;19.268;2023-06-22T01:12:04;11.88;;;4.80;;
79747;SDS011;69232;47.488;19.268;2023-06-22T01:17:21;11.15;;;4.55;;
79747;SDS011;69232;47.488;19.268;2023-06-22T01:19:49;9.30;;;4.00;;
79747;SDS011;69232;47.488;19.268;2023-06-22T01:22:21;10.90;;;4.50;;
79747;SDS011;69232;47.488;19.268;2023-06-22T01:27:36;12.57;;;4.45;;
79747;SDS011;69232;47.488;19.268;2023-06-22T01:30:07;7.53;;;4.13;;
79747;SDS011;69232;47.488;19.268;2023-06-22T01:32:35;10.70;;;4.32;;
79747;SDS011;69232;47.488;19.268;2023-06-22T01:35:03;8.68;;;4.43;;
79747;SDS011;69232;47.488;19.268;2023-06-22T01:37:30;11.05;;;4.18;;
79747;SDS011;69232;47.488;19.268;2023-06-22T01:39:57;13.77;;;5.65;;
79747;SDS011;69232;47.488;19.268;2023-06-22T01:42:24;11.50;;;4.93;;
79747;SDS011;69232;47.488;19.268;2023-06-22T01:44:50;9.68;;;4.20;;
79747;SDS011;69232;47.488;19.268;2023-06-22T01:47:20;10.15;;;4.13;;
79747;SDS011;69232;47.488;19.268;2023-06-22T01:49:46;9.32;;;4.32;;
79747;SDS011;69232;47.488;19.268;2023-06-22T01:52:13;12.77;;;4.57;;
79747;SDS011;69232;47.488;19.268;2023-06-22T01:54:40;12.48;;;4.15;;
79747;SDS011;69232;47.488;19.268;2023-06-22T01:57:06;13.88;;;4.63;;
79747;SDS011;69232;47.488;19.268;2023-06-22T01:59:32;10.73;;;3.95;;
79747;SDS011;69232;47.488;19.268;2023-06-22T02:02:01;15.73;;;5.30;;
79747;SDS011;69232;47.488;19.268;2023-06-22T02:04:34;12.70;;;4.50;;
79747;SDS011;69232;47.488;19.268;2023-06-22T02:07:04;8.98;;;4.38;;
79747;SDS011;69232;47.488;19.268;2023-06-22T02:09:32;9.45;;;4.60;;
79747;SDS011;69232;47.488;19.268;2023-06-22T02:11:59;10.27;;;4.35;;
79747;SDS011;69232;47.488;19.268;2023-06-22T02:14:25;10.70;;;4.53;;
79747;SDS011;69232;47.488;19.268;2023-06-22T02:16:51;11.38;;;5.03;;
79747;SDS011;69232;47.488;19.268;2023-06-22T02:19:17;11.25;;;4.35;;
79747;SDS011;69232;47.488;19.268;2023-06-22T02:21:43;10.75;;;5.13;;
79747;SDS011;69232;47.488;19.268;2023-06-22T02:24:10;9.90;;;4.78;;
79747;SDS011;69232;47.488;19.268;2023-06-22T02:26:35;8.38;;;4.32;;
79747;SDS011;69232;47.488;19.268;2023-06-22T02:29:03;12.70;;;4.57;;
79747;SDS011;69232;47.488;19.268;2023-06-22T02:31:28;12.25;;;4.78;;
79747;SDS011;69232;47.488;19.268;2023-06-22T02:33:58;9.57;;;4.57;;
79747;SDS011;69232;47.488;19.268;2023-06-22T02:36:24;11.05;;;4.72;;
79747;SDS011;69232;47.488;19.268;2023-06-22T02:38:51;8.95;;;4.72;;
79747;SDS011;69232;47.488;19.268;2023-06-22T02:41:17;13.35;;;5.70;;
79747;SDS011;69232;47.488;19.268;2023-06-22T02:43:46;12.75;;;4.75;;
79747;SDS011;69232;47.488;19.268;2023-06-22T02:46:12;10.98;;;5.35;;
79747;SDS011;69232;47.488;19.268;2023-06-22T02:48:41;14.80;;;5.10;;
79747;SDS011;69232;47.488;19.268;2023-06-22T02:51:07;11.63;;;3.95;;
79747;SDS011;69232;47.488;19.268;2023-06-22T02:53:33;10.52;;;4.35;;
79747;SDS011;69232;47.488;19.268;2023-06-22T02:55:58;8.52;;;4.20;;
79747;SDS011;69232;47.488;19.268;2023-06-22T02:58:26;7.97;;;3.83;;
79747;SDS011;69232;47.488;19.268;2023-06-22T03:00:51;12.38;;;4.85;;
79747;SDS011;69232;47.488;19.268;2023-06-22T03:03:18;10.35;;;4.72;;
79747;SDS011;69232;47.488;19.268;2023-06-22T03:05:46;13.18;;;4.97;;
79747;SDS011;69232;47.488;19.268;2023-06-22T03:08:12;10.60;;;4.68;;
79747;SDS011;69232;47.488;19.268;2023-06-22T03:10:37;12.02;;;4.85;;
79747;SDS011;69232;47.488;19.268;2023-06-22T03:13:02;11.52;;;4.40;;
79747;SDS011;69232;47.488;19.268;2023-06-22T03:15:28;10.20;;;4.00;;
79747;SDS011;69232;47.488;19.268;2023-06-22T03:17:57;10.52;;;4.70;;
79747;SDS011;69232;47.488;19.268;2023-06-22T03:20:23;13.77;;;4.47;;
79747;SDS011;69232;47.488;19.268;2023-06-22T03:22:48;9.10;;;3.97;;
79747;SDS011;69232;47.488;19.268;2023-06-22T03:25:14;14.80;;;4.15;;
79747;SDS011;69232;47.488;19.268;2023-06-22T03:27:40;10.25;;;3.83;;
79747;SDS011;69232;47.488;19.268;2023-06-22T03:30:06;9.95;;;3.88;;
79747;SDS011;69232;47.488;19.268;2023-06-22T03:32:33;13.02;;;3.85;;
79747;SDS011;69232;47.488;19.268;2023-06-22T03:34:58;10.35;;;4.53;;
79747;SDS011;69232;47.488;19.268;2023-06-22T03:37:27;14.07;;;4.15;;
79747;SDS011;69232;47.488;19.268;2023-06-22T03:39:53;10.45;;;3.50;;
79747;SDS011;69232;47.488;19.268;2023-06-22T03:42:18;9.65;;;3.83;;
79747;SDS011;69232;47.488;19.268;2023-06-22T03:44:44;11.93;;;4.45;;
79747;SDS011;69232;47.488;19.268;2023-06-22T03:47:09;8.77;;;4.15;;
79747;SDS011;69232;47.488;19.268;2023-06-22T03:49:35;7.97;;;3.95;;
79747;SDS011;69232;47.488;19.268;2023-06-22T03:52:01;13.90;;;4.53;;
79747;SDS011;69232;47.488;19.268;2023-06-22T03:54:27;9.13;;;4.15;;
79747;SDS011;69232;47.488;19.268;2023-06-22T03:56:53;7.50;;;3.97;;
79747;SDS011;69232;47.488;19.268;2023-06-22T03:59:18;9.35;;;4.22;;
79747;SDS011;69232;47.488;19.268;2023-06-22T04:01:44;13.43;;;4.07;;
79747;SDS011;69232;47.488;19.268;2023-06-22T04:04:09;10.55;;;4.70;;
79747;SDS011;69232;47.488;19.268;2023-06-22T04:06:35;14.43;;;5.75;;
79747;SDS011;69232;47.488;19.268;2023-06-22T04:09:00;13.60;;;4.97;;
79747;SDS011;69232;47.488;19.268;2023-06-22T04:11:26;11.30;;;4.72;;
79747;SDS011;69232;47.488;19.268;2023-06-22T04:13:51;12.75;;;4.65;;
79747;SDS011;69232;47.488;19.268;2023-06-22T04:16:17;13.50;;;4.65;;
79747;SDS011;69232;47.488;19.268;2023-06-22T04:18:42;14.35;;;5.07;;
79747;SDS011;69232;47.488;19.268;2023-06-22T04:21:08;14.60;;;5.47;;
79747;SDS011;69232;47.488;19.268;2023-06-22T04:23:33;11.80;;;5.03;;
79747;SDS011;69232;47.488;19.268;2023-06-22T04:25:58;13.02;;;5.55;;
79747;SDS011;69232;47.488;19.268;2023-06-22T04:28:24;12.55;;;4.70;;
79747;SDS011;69232;47.488;19.268;2023-06-22T04:30:50;15.00;;;5.63;;
79747;SDS011;69232;47.488;19.268;2023-06-22T04:33:16;11.10;;;4.97;;
79747;SDS011;69232;47.488;19.268;2023-06-22T04:35:42;12.80;;;5.35;;
79747;SDS011;69232;47.488;19.268;2023-06-22T04:38:11;12.80;;;5.15;;
79747;SDS011;69232;47.488;19.268;2023-06-22T04:40:38;13.77;;;5.72;;
79747;SDS011;69232;47.488;19.268;2023-06-22T04:43:04;10.18;;;5.15;;
79747;SDS011;69232;47.488;19.268;2023-06-22T04:45:31;11.38;;;4.65;;
79747;SDS011;69232;47.488;19.268;2023-06-22T04:47:57;15.80;;;5.40;;
79747;SDS011;69232;47.488;19.268;2023-06-22T04:50:22;11.93;;;4.40;;
79747;SDS011;69232;47.488;19.268;2023-06-22T04:52:48;12.25;;;4.70;;
79747;SDS011;69232;47.488;19.268;2023-06-22T04:55:14;12.27;;;5.18;;
79747;SDS011;69232;47.488;19.268;2023-06-22T04:57:45;14.02;;;4.57;;
79747;SDS011;69232;47.488;19.268;2023-06-22T05:00:14;13.20;;;5.97;;
79747;SDS011;69232;47.488;19.268;2023-06-22T05:02:42;14.40;;;5.00;;
79747;SDS011;69232;47.488;19.268;2023-06-22T05:05:08;11.05;;;5.40;;
79747;SDS011;69232;47.488;19.268;2023-06-22T05:07:34;10.40;;;4.85;;
79747;SDS011;69232;47.488;19.268;2023-06-22T05:10:00;12.10;;;5.53;;
79747;SDS011;69232;47.488;19.268;2023-06-22T05:12:27;14.68;;;5.80;;
79747;SDS011;69232;47.488;19.268;2023-06-22T05:14:53;12.13;;;5.35;;
79747;SDS011;69232;47.488;19.268;2023-06-22T05:17:19;15.07;;;5.75;;
79747;SDS011;69232;47.488;19.268;2023-06-22T05:19:44;15.15;;;5.93;;
79747;SDS011;69232;47.488;19.268;2023-06-22T05:22:14;12.75;;;6.25;;
79747;SDS011;69232;47.488;19.268;2023-06-22T05:24:40;13.10;;;5.82;;
79747;SDS011;69232;47.488;19.268;2023-06-22T05:27:05;11.32;;;5.22;;
79747;SDS011;69232;47.488;19.268;2023-06-22T05:29:31;14.13;;;5.32;;
79747;SDS011;69232;47.488;19.268;2023-06-22T05:31:56;15.38;;;5.97;;
79747;SDS011;69232;47.488;19.268;2023-06-22T05:34:22;19.80;;;6.15;;
79747;SDS011;69232;47.488;19.268;2023-06-22T05:36:47;12.63;;;5.90;;
79747;SDS011;69232;47.488;19.268;2023-06-22T05:39:13;15.25;;;5.50;;
79747;SDS011;69232;47.488;19.268;2023-06-22T05:41:39;20.05;;;6.93;;
79747;SDS011;69232;47.488;19.268;2023-06-22T05:44:05;14.48;;;6.20;;
79747;SDS011;69232;47.488;19.268;2023-06-22T05:46:31;17.83;;;7.18;;
79747;SDS011;69232;47.488;19.268;2023-06-22T05:48:57;12.93;;;6.18;;
79747;SDS011;69232;47.488;19.268;2023-06-22T05:51:22;14.98;;;5.97;;
79747;SDS011;69232;47.488;19.268;2023-06-22T05:53:48;15.23;;;6.20;;
79747;SDS011;69232;47.488;19.268;2023-06-22T05:56:15;20.27;;;7.15;;
79747;SDS011;69232;47.488;19.268;2023-06-22T05:58:41;16.27;;;7.22;;
79747;SDS011;69232;47.488;19.268;2023-06-22T06:01:06;14.02;;;6.65;;
79747;SDS011;69232;47.488;19.268;2023-06-22T06:03:31;16.75;;;8.00;;
79747;SDS011;69232;47.488;19.268;2023-06-22T06:05:57;10.93;;;5.65;;
79747;SDS011;69232;47.488;19.268;2023-06-22T06:08:22;16.33;;;6.45;;
79747;SDS011;69232;47.488;19.268;2023-06-22T06:10:48;11.52;;;5.95;;
79747;SDS011;69232;47.488;19.268;2023-06-22T06:13:13;14.30;;;6.60;;
79747;SDS011;69232;47.488;19.268;2023-06-22T06:15:39;12.00;;;6.30;;
79747;SDS011;69232;47.488;19.268;2023-06-22T06:18:04;14.07;;;6.45;;
79747;SDS011;69232;47.488;19.268;2023-06-22T06:20:31;17.17;;;6.55;;
79747;SDS011;69232;47.488;19.268;2023-06-22T06:22:57;11.93;;;6.05;;
79747;SDS011;69232;47.488;19.268;2023-06-22T06:25:23;16.88;;;6.50;;
79747;SDS011;69232;47.488;19.268;2023-06-22T06:27:49;15.32;;;5.72;;
79747;SDS011;69232;47.488;19.268;2023-06-22T06:30:16;20.75;;;6.70;;
79747;SDS011;69232;47.488;19.268;2023-06-22T06:32:43;14.55;;;6.40;;
79747;SDS011;69232;47.488;19.268;2023-06-22T06:35:10;15.15;;;6.13;;
79747;SDS011;69232;47.488;19.268;2023-06-22T06:37:37;12.30;;;5.68;;
79747;SDS011;69232;47.488;19.268;2023-06-22T06:40:07;14.25;;;5.38;;
79747;SDS011;69232;47.488;19.268;2023-06-22T06:42:35;10.40;;;5.88;;
79747;SDS011;69232;47.488;19.268;2023-06-22T06:45:09;14.38;;;5.35;;
79747;SDS011;69232;47.488;19.268;2023-06-22T06:47:40;11.90;;;5.80;;
79747;SDS011;69232;47.488;19.268;2023-06-22T06:50:06;18.50;;;6.00;;
79747;SDS011;69232;47.488;19.268;2023-06-22T06:52:32;24.13;;;5.35;;
79747;SDS011;69232;47.488;19.268;2023-06-22T06:54:58;12.00;;;4.57;;
79747;SDS011;69232;47.488;19.268;2023-06-22T06:57:23;12.02;;;4.20;;
79747;SDS011;69232;47.488;19.268;2023-06-22T07:02:18;16.13;;;4.33;;
79747;SDS011;69232;47.488;19.268;2023-06-22T07:04:45;7.20;;;3.85;;
79747;SDS011;69232;47.488;19.268;2023-06-22T07:07:11;12.48;;;3.92;;
79747;SDS011;69232;47.488;19.268;2023-06-22T07:09:37;8.82;;;3.60;;
79747;SDS011;69232;47.488;19.268;2023-06-22T07:12:02;11.20;;;4.50;;
79747;SDS011;69232;47.488;19.268;2023-06-22T07:14:28;10.52;;;4.18;;
79747;SDS011;69232;47.488;19.268;2023-06-22T07:16:53;13.25;;;4.60;;
79747;SDS011;69232;47.488;19.268;2023-06-22T07:19:27;14.20;;;4.63;;
79747;SDS011;69232;47.488;19.268;2023-06-22T07:21:53;10.15;;;4.22;;
79747;SDS011;69232;47.488;19.268;2023-06-22T07:24:20;9.07;;;3.92;;
79747;SDS011;69232;47.488;19.268;2023-06-22T07:26:48;9.32;;;3.58;;
79747;SDS011;69232;47.488;19.268;2023-06-22T07:29:16;14.90;;;4.28;;
79747;SDS011;69232;47.488;19.268;2023-06-22T07:31:42;11.43;;;3.35;;
79747;SDS011;69232;47.488;19.268;2023-06-22T07:34:07;12.55;;;4.07;;
79747;SDS011;69232;47.488;19.268;2023-06-22T07:36:33;9.68;;;3.65;;
79747;SDS011;69232;47.488;19.268;2023-06-22T07:39:00;9.48;;;3.70;;
79747;SDS011;69232;47.488;19.268;2023-06-22T07:41:27;11.75;;;4.45;;
79747;SDS011;69232;47.488;19.268;2023-06-22T07:43:53;9.02;;;3.90;;
79747;SDS011;69232;47.488;19.268;2023-06-22T07:46:18;8.52;;;3.55;;
79747;SDS011;69232;47.488;19.268;2023-06-22T07:48:43;9.93;;;2.92;;
79747;SDS011;69232;47.488;19.268;2023-06-22T07:51:09;16.08;;;3.55;;
79747;SDS011;69232;47.488;19.268;2023-06-22T07:53:38;9.85;;;3.15;;
79747;SDS011;69232;47.488;19.268;2023-06-22T07:56:05;6.93;;;2.67;;
79747;SDS011;69232;47.488;19.268;2023-06-22T07:58:32;13.80;;;3.47;;
79747;SDS011;69232;47.488;19.268;2023-06-22T08:00:58;7.30;;;3.03;;
79747;SDS011;69232;47.488;19.268;2023-06-22T08:03:23;7.00;;;3.35;;
79747;SDS011;69232;47.488;19.268;2023-06-22T08:05:49;10.52;;;3.17;;
79747;SDS011;69232;47.488;19.268;2023-06-22T08:08:14;11.43;;;3.25;;
79747;SDS011;69232;47.488;19.268;2023-06-22T08:10:40;8.45;;;3.67;;
79747;SDS011;69232;47.488;19.268;2023-06-22T08:13:07;8.88;;;3.28;;
79747;SDS011;69232;47.488;19.268;2023-06-22T08:15:33;11.80;;;3.33;;
79747;SDS011;69232;47.488;19.268;2023-06-22T08:17:58;11.52;;;3.63;;
79747;SDS011;69232;47.488;19.268;2023-06-22T08:20:25;7.57;;;3.08;;
79747;SDS011;69232;47.488;19.268;2023-06-22T08:22:52;13.63;;;3.17;;
79747;SDS011;69232;47.488;19.268;2023-06-22T08:25:18;8.13;;;3.58;;
79747;SDS011;69232;47.488;19.268;2023-06-22T08:27:47;7.88;;;3.65;;
79747;SDS011;69232;47.488;19.268;2023-06-22T08:30:13;11.45;;;3.63;;
79747;SDS011;69232;47.488;19.268;2023-06-22T08:32:39;10.80;;;3.90;;
79747;SDS011;69232;47.488;19.268;2023-06-22T08:35:05;11.13;;;4.00;;
79747;SDS011;69232;47.488;19.268;2023-06-22T08:37:34;7.60;;;3.33;;
79747;SDS011;69232;47.488;19.268;2023-06-22T08:40:01;9.65;;;3.33;;
79747;SDS011;69232;47.488;19.268;2023-06-22T08:42:30;7.70;;;3.53;;
79747;SDS011;69232;47.488;19.268;2023-06-22T08:44:56;11.60;;;4.45;;
79747;SDS011;69232;47.488;19.268;2023-06-22T08:47:22;9.07;;;4.18;;
79747;SDS011;69232;47.488;19.268;2023-06-22T08:49:48;8.10;;;3.90;;
79747;SDS011;69232;47.488;19.268;2023-06-22T08:52:13;8.18;;;3.55;;
79747;SDS011;69232;47.488;19.268;2023-06-22T08:54:39;11.15;;;3.97;;
79747;SDS011;69232;47.488;19.268;2023-06-22T08:57:04;7.15;;;3.80;;
79747;SDS011;69232;47.488;19.268;2023-06-22T08:59:30;10.13;;;3.92;;
79747;SDS011;69232;47.488;19.268;2023-06-22T09:01:55;9.70;;;3.78;;
79747;SDS011;69232;47.488;19.268;2023-06-22T09:04:21;11.23;;;4.47;;
79747;SDS011;69232;47.488;19.268;2023-06-22T09:06:47;12.00;;;4.10;;
79747;SDS011;69232;47.488;19.268;2023-06-22T09:09:13;10.88;;;4.90;;
79747;SDS011;69232;47.488;19.268;2023-06-22T09:11:41;8.90;;;4.03;;
79747;SDS011;69232;47.488;19.268;2023-06-22T09:14:06;9.27;;;5.10;;
79747;SDS011;69232;47.488;19.268;2023-06-22T09:16:32;8.65;;;3.75;;
79747;SDS011;69232;47.488;19.268;2023-06-22T09:18:57;11.68;;;4.68;;
79747;SDS011;69232;47.488;19.268;2023-06-22T09:21:23;11.50;;;4.22;;
79747;SDS011;69232;47.488;19.268;2023-06-22T09:23:48;14.38;;;4.53;;
79747;SDS011;69232;47.488;19.268;2023-06-22T09:26:16;11.52;;;4.38;;
79747;SDS011;69232;47.488;19.268;2023-06-22T09:28:42;12.82;;;5.22;;
79747;SDS011;69232;47.488;19.268;2023-06-22T09:31:08;10.63;;;5.13;;
79747;SDS011;69232;47.488;19.268;2023-06-22T09:33:33;10.80;;;4.72;;
79747;SDS011;69232;47.488;19.268;2023-06-22T09:35:59;9.77;;;5.30;;
79747;SDS011;69232;47.488;19.268;2023-06-22T09:38:24;9.70;;;5.63;;
79747;SDS011;69232;47.488;19.268;2023-06-22T09:40:49;10.77;;;5.10;;
79747;SDS011;69232;47.488;19.268;2023-06-22T09:43:15;14.85;;;6.00;;
79747;SDS011;69232;47.488;19.268;2023-06-22T09:45:42;10.48;;;5.07;;
79747;SDS011;69232;47.488;19.268;2023-06-22T09:48:07;14.73;;;5.90;;
79747;SDS011;69232;47.488;19.268;2023-06-22T09:50:35;15.35;;;5.78;;
79747;SDS011;69232;47.488;19.268;2023-06-22T09:53:02;16.27;;;5.57;;
79747;SDS011;69232;47.488;19.268;2023-06-22T09:55:27;10.50;;;5.28;;
79747;SDS011;69232;47.488;19.268;2023-06-22T09:57:53;7.32;;;5.43;;
79747;SDS011;69232;47.488;19.268;2023-06-22T10:00:19;10.70;;;5.85;;
79747;SDS011;69232;47.488;19.268;2023-06-22T10:02:46;15.75;;;6.43;;
79747;SDS011;69232;47.488;19.268;2023-06-22T10:05:12;13.50;;;5.90;;
79747;SDS011;69232;47.488;19.268;2023-06-22T10:07:37;11.18;;;6.70;;
79747;SDS011;69232;47.488;19.268;2023-06-22T10:10:07;10.57;;;5.82;;
79747;SDS011;69232;47.488;19.268;2023-06-22T10:12:33;11.27;;;7.00;;
79747;SDS011;69232;47.488;19.268;2023-06-22T10:14:58;15.60;;;6.68;;
79747;SDS011;69232;47.488;19.268;2023-06-22T10:17:24;12.30;;;6.32;;
79747;SDS011;69232;47.488;19.268;2023-06-22T10:19:49;11.52;;;6.05;;
79747;SDS011;69232;47.488;19.268;2023-06-22T10:22:14;8.65;;;6.05;;
79747;SDS011;69232;47.488;19.268;2023-06-22T10:24:40;10.15;;;6.28;;
79747;SDS011;69232;47.488;19.268;2023-06-22T10:27:10;13.15;;;7.70;;
79747;SDS011;69232;47.488;19.268;2023-06-22T10:29:36;17.80;;;6.50;;
79747;SDS011;69232;47.488;19.268;2023-06-22T10:32:01;13.70;;;7.13;;
79747;SDS011;69232;47.488;19.268;2023-06-22T10:34:27;12.18;;;6.32;;
79747;SDS011;69232;47.488;19.268;2023-06-22T10:36:52;12.45;;;7.15;;
79747;SDS011;69232;47.488;19.268;2023-06-22T10:39:18;14.95;;;7.13;;
79747;SDS011;69232;47.488;19.268;2023-06-22T10:41:43;9.93;;;6.57;;
79747;SDS011;69232;47.488;19.268;2023-06-22T10:44:09;13.95;;;6.68;;
79747;SDS011;69232;47.488;19.268;2023-06-22T10:46:34;9.15;;;6.75;;
79747;SDS011;69232;47.488;19.268;2023-06-22T10:49:00;12.15;;;7.38;;
79747;SDS011;69232;47.488;19.268;2023-06-22T10:51:25;11.82;;;6.65;;
79747;SDS011;69232;47.488;19.268;2023-06-22T10:53:51;13.10;;;7.07;;
79747;SDS011;69232;47.488;19.268;2023-06-22T10:56:17;11.60;;;6.30;;
79747;SDS011;69232;47.488;19.268;2023-06-22T10:58:44;11.88;;;6.90;;
79747;SDS011;69232;47.488;19.268;2023-06-22T11:01:09;13.32;;;7.05;;
79747;SDS011;69232;47.488;19.268;2023-06-22T11:03:35;12.82;;;6.80;;
79747;SDS011;69232;47.488;19.268;2023-06-22T11:06:00;15.93;;;7.68;;
79747;SDS011;69232;47.488;19.268;2023-06-22T11:08:25;11.27;;;7.28;;
79747;SDS011;69232;47.488;19.268;2023-06-22T11:10:51;11.60;;;7.00;;
79747;SDS011;69232;47.488;19.268;2023-06-22T11:13:17;16.23;;;7.80;;
79747;SDS011;69232;47.488;19.268;2023-06-22T11:15:42;14.13;;;6.60;;
79747;SDS011;69232;47.488;19.268;2023-06-22T11:18:07;10.35;;;6.13;;
79747;SDS011;69232;47.488;19.268;2023-06-22T11:20:33;12.38;;;6.72;;
79747;SDS011;69232;47.488;19.268;2023-06-22T11:23:03;12.73;;;6.60;;
79747;SDS011;69232;47.488;19.268;2023-06-22T11:25:29;11.30;;;7.20;;
79747;SDS011;69232;47.488;19.268;2023-06-22T11:27:54;11.00;;;6.38;;
79747;SDS011;69232;47.488;19.268;2023-06-22T11:30:20;13.45;;;6.93;;
79747;SDS011;69232;47.488;19.268;2023-06-22T11:32:45;13.73;;;7.78;;
79747;SDS011;69232;47.488;19.268;2023-06-22T11:35:11;12.20;;;7.10;;
79747;SDS011;69232;47.488;19.268;2023-06-22T11:37:36;12.60;;;6.68;;
79747;SDS011;69232;47.488;19.268;2023-06-22T11:40:01;10.25;;;6.38;;
79747;SDS011;69232;47.488;19.268;2023-06-22T11:42:30;10.80;;;6.85;;
79747;SDS011;69232;47.488;19.268;2023-06-22T11:44:55;8.75;;;6.25;;
79747;SDS011;69232;47.488;19.268;2023-06-22T11:47:21;12.98;;;6.47;;
79747;SDS011;69232;47.488;19.268;2023-06-22T11:49:46;12.18;;;7.45;;
79747;SDS011;69232;47.488;19.268;2023-06-22T11:52:12;13.10;;;6.78;;
79747;SDS011;69232;47.488;19.268;2023-06-22T11:54:37;8.95;;;6.38;;
79747;SDS011;69232;47.488;19.268;2023-06-22T11:57:03;15.43;;;7.35;;
79747;SDS011;69232;47.488;19.268;2023-06-22T11:59:29;9.07;;;6.40;;
79747;SDS011;69232;47.488;19.268;2023-06-22T12:01:54;14.43;;;6.03;;
79747;SDS011;69232;47.488;19.268;2023-06-22T12:04:20;11.38;;;6.70;;
79747;SDS011;69232;47.488;19.268;2023-06-22T12:06:45;10.18;;;6.43;;
79747;SDS011;69232;47.488;19.268;2023-06-22T12:09:12;17.52;;;7.13;;
79747;SDS011;69232;47.488;19.268;2023-06-22T12:11:38;11.73;;;6.47;;
79747;SDS011;69232;47.488;19.268;2023-06-22T12:14:04;12.95;;;7.03;;
79747;SDS011;69232;47.488;19.268;2023-06-22T12:16:29;12.68;;;6.85;;
79747;SDS011;69232;47.488;19.268;2023-06-22T12:18:55;18.98;;;7.35;;
79747;SDS011;69232;47.488;19.268;2023-06-22T12:21:20;13.18;;;6.70;;
79747;SDS011;69232;47.488;19.268;2023-06-22T12:23:45;9.02;;;6.07;;
79747;SDS011;69232;47.488;19.268;2023-06-22T12:26:11;11.25;;;7.18;;
79747;SDS011;69232;47.488;19.268;2023-06-22T12:28:36;9.32;;;6.47;;
79747;SDS011;69232;47.488;19.268;2023-06-22T12:31:02;9.90;;;6.38;;
79747;SDS011;69232;47.488;19.268;2023-06-22T12:33:27;16.65;;;7.35;;
79747;SDS011;69232;47.488;19.268;2023-06-22T12:35:53;11.73;;;6.82;;
79747;SDS011;69232;47.488;19.268;2023-06-22T12:38:18;12.10;;;6.47;;
79747;SDS011;69232;47.488;19.268;2023-06-22T12:40:43;12.25;;;6.72;;
79747;SDS011;69232;47.488;19.268;2023-06-22T12:43:09;10.93;;;6.32;;
79747;SDS011;69232;47.488;19.268;2023-06-22T12:45:34;16.63;;;6.85;;
79747;SDS011;69232;47.488;19.268;2023-06-22T12:48:00;13.68;;;6.50;;
79747;SDS011;69232;47.488;19.268;2023-06-22T12:50:26;9.80;;;6.38;;
79747;SDS011;69232;47.488;19.268;2023-06-22T12:52:51;14.63;;;7.32;;
79747;SDS011;69232;47.488;19.268;2023-06-22T12:55:17;12.98;;;6.75;;
79747;SDS011;69232;47.488;19.268;2023-06-22T12:57:42;9.98;;;6.35;;
79747;SDS011;69232;47.488;19.268;2023-06-22T13:00:08;11.98;;;6.70;;
79747;SDS011;69232;47.488;19.268;2023-06-22T13:02:35;15.60;;;6.80;;
79747;SDS011;69232;47.488;19.268;2023-06-22T13:05:01;8.43;;;6.70;;
79747;SDS011;69232;47.488;19.268;2023-06-22T13:07:27;9.07;;;6.22;;
79747;SDS011;69232;47.488;19.268;2023-06-22T13:09:52;13.65;;;6.63;;
79747;SDS011;69232;47.488;19.268;2023-06-22T13:12:19;10.57;;;6.18;;
79747;SDS011;69232;47.488;19.268;2023-06-22T13:14:45;11.57;;;6.55;;
79747;SDS011;69232;47.488;19.268;2023-06-22T13:17:12;8.57;;;6.72;;
79747;SDS011;69232;47.488;19.268;2023-06-22T13:19:38;13.52;;;6.20;;
79747;SDS011;69232;47.488;19.268;2023-06-22T13:22:03;14.63;;;6.75;;
79747;SDS011;69232;47.488;19.268;2023-06-22T13:24:30;10.30;;;5.80;;
79747;SDS011;69232;47.488;19.268;2023-06-22T13:26:55;11.85;;;7.25;;
79747;SDS011;69232;47.488;19.268;2023-06-22T13:29:20;12.95;;;6.57;;
79747;SDS011;69232;47.488;19.268;2023-06-22T13:31:46;11.70;;;6.43;;
79747;SDS011;69232;47.488;19.268;2023-06-22T13:34:11;10.45;;;6.10;;
79747;SDS011;69232;47.488;19.268;2023-06-22T13:36:37;14.50;;;6.50;;
79747;SDS011;69232;47.488;19.268;2023-06-22T13:39:03;12.95;;;6.32;;
79747;SDS011;69232;47.488;19.268;2023-06-22T13:41:28;11.32;;;5.75;;
79747;SDS011;69232;47.488;19.268;2023-06-22T13:43:54;8.32;;;6.35;;
79747;SDS011;69232;47.488;19.268;2023-06-22T13:46:19;10.70;;;5.72;;
79747;SDS011;69232;47.488;19.268;2023-06-22T13:48:45;10.07;;;6.55;;
79747;SDS011;69232;47.488;19.268;2023-06-22T13:51:10;12.27;;;6.20;;
79747;SDS011;69232;47.488;19.268;2023-06-22T13:53:36;9.88;;;6.47;;
79747;SDS011;69232;47.488;19.268;2023-06-22T13:56:01;13.63;;;5.82;;
79747;SDS011;69232;47.488;19.268;2023-06-22T13:58:26;11.50;;;6.32;;
79747;SDS011;69232;47.488;19.268;2023-06-22T14:00:52;7.38;;;5.88;;
79747;SDS011;69232;47.488;19.268;2023-06-22T14:03:17;14.38;;;6.25;;
79747;SDS011;69232;47.488;19.268;2023-06-22T14:05:43;12.02;;;5.55;;
79747;SDS011;69232;47.488;19.268;2023-06-22T14:08:08;15.05;;;6.22;;
79747;SDS011;69232;47.488;19.268;2023-06-22T14:10:34;9.10;;;6.18;;
79747;SDS011;69232;47.488;19.268;2023-06-22T14:13:00;13.30;;;6.30;;
79747;SDS011;69232;47.488;19.268;2023-06-22T14:15:25;15.57;;;6.22;;
79747;SDS011;69232;47.488;19.268;2023-06-22T14:17:51;9.85;;;6.10;;
79747;SDS011;69232;47.488;19.268;2023-06-22T14:20:17;14.48;;;5.97;;
79747;SDS011;69232;47.488;19.268;2023-06-22T14:22:43;11.70;;;6.28;;
79747;SDS011;69232;47.488;19.268;2023-06-22T14:25:08;9.65;;;6.00;;
79747;SDS011;69232;47.488;19.268;2023-06-22T14:27:34;8.68;;;5.82;;